Time;durP1;ratioP1;P1;durP2;ratioP2;P2;SDS_P1;SDS_P2;PMS_P1;PMS_P2;Temp;Humidity;BMP_temperature;BMP_pressure;BME280_temperature;BME280_humidity;BME280_pressure;Samples;Min_cycle;Max_cycle;Signal;HPM_P1;HPM_P2
2023/12/28 00:00:52;;;;;;;26.80;14.70;;;;;;;-0.60;89.18;100045.43;215775;1269;140833;-67
2023/12/28 00:06:16;;;;;;;27.00;14.40;;;;;;;-0.62;89.00;100043.51;216251;1271;140077;-67
2023/12/28 00:11:20;;;;;;;28.20;12.80;;;;;;;-0.59;89.28;100041.48;216086;1271;140055;-69
2023/12/28 00:16:25;;;;;;;29.90;14.80;;;;;;;-0.56;89.32;100033.64;215920;1271;141983;-67
2023/12/28 00:21:29;;;;;;;24.90;13.70;;;;;;;-0.52;89.20;100028.23;215073;1268;466495;-66
2023/12/28 00:26:34;;;;;;;25.80;15.00;;;;;;;-0.49;89.37;100018.95;216409;1269;142011;-66
2023/12/28 00:31:37;;;;;;;26.10;12.70;;;;;;;-0.44;89.44;99993.48;215852;1271;140325;-65
2023/12/28 00:36:43;;;;;;;26.70;14.80;;;;;;;-0.40;89.51;99964.20;216566;1271;140417;-65
2023/12/28 00:41:46;;;;;;;24.60;13.70;;;;;;;-0.35;89.48;99963.57;217439;1268;141291;-68
2023/12/28 00:46:50;;;;;;;19.10;11.50;;;;;;;-0.30;89.40;99961.01;218580;1269;140315;-69
2023/12/28 00:51:55;;;;;;;28.10;15.20;;;;;;;-0.27;89.30;99957.67;218535;1268;141214;-67
2023/12/28 00:56:59;;;;;;;28.80;15.50;;;;;;;-0.24;89.24;99951.80;218384;1271;142140;-66
2023/12/28 01:02:04;;;;;;;33.40;14.20;;;;;;;-0.20;89.26;99944.39;217852;1269;140396;-67
2023/12/28 01:07:09;;;;;;;16.00;12.30;;;;;;;-0.15;89.04;99939.66;218530;1268;140230;-67
2023/12/28 01:12:13;;;;;;;29.30;15.50;;;;;;;-0.11;89.14;99922.81;216627;1267;139886;-67
2023/12/28 01:17:19;;;;;;;33.00;15.30;;;;;;;-0.08;89.08;99905.00;217298;1266;141360;-66
2023/12/28 01:22:23;;;;;;;31.50;14.80;;;;;;;-0.05;89.22;99903.50;215884;1268;140788;-66
2023/12/28 01:27:27;;;;;;;30.40;14.30;;;;;;;-0.02;89.46;99914.33;215784;1271;140337;-66
2023/12/28 01:32:32;;;;;;;23.70;13.70;;;;;;;0.03;89.36;99908.86;217385;1267;140133;-67
2023/12/28 01:37:37;;;;;;;35.10;15.90;;;;;;;0.08;89.65;99904.90;217520;1268;139956;-66
2023/12/28 01:42:41;;;;;;;35.20;17.00;;;;;;;0.14;89.32;99903.34;215934;1271;139694;-66
2023/12/28 01:47:47;;;;;;;31.70;13.30;;;;;;;0.20;89.66;99905.84;215795;1268;140579;-67
2023/12/28 01:52:51;;;;;;;33.70;15.90;;;;;;;0.24;89.46;99894.01;215791;1271;139393;-66
2023/12/28 01:57:57;;;;;;;29.60;15.80;;;;;;;0.28;89.15;99879.82;216129;1267;142009;-65
2023/12/28 02:03:02;;;;;;;31.90;13.30;;;;;;;0.31;89.44;99879.47;215818;1269;140298;-67
2023/12/28 02:08:06;;;;;;;26.90;15.50;;;;;;;0.34;89.47;99871.44;216406;1270;140323;-66
2023/12/28 02:13:11;;;;;;;24.60;11.90;;;;;;;0.37;89.34;99858.55;215747;1270;140390;-66
2023/12/28 02:18:21;;;;;;;30.50;14.20;;;;;;;0.41;89.36;99852.36;216613;1267;140040;-66
2023/12/28 02:23:25;;;;;;;28.80;15.10;;;;;;;0.43;89.36;99829.48;216288;1267;140497;-66
2023/12/28 02:28:29;;;;;;;25.50;12.30;;;;;;;0.46;89.23;99825.42;215773;1268;140734;-66
2023/12/28 02:33:43;;;;;;;34.40;14.20;;;;;;;0.47;89.37;99815.89;215809;1271;140173;-66
2023/12/28 02:38:49;;;;;;;28.70;14.80;;;;;;;0.48;89.42;99806.81;217322;1268;140020;-67
2023/12/28 02:43:53;;;;;;;26.40;14.50;;;;;;;0.49;89.38;99803.77;218643;1267;141734;-67
2023/12/28 02:48:59;;;;;;;37.50;17.00;;;;;;;0.51;89.09;99793.37;218732;1267;140678;-67
2023/12/28 02:54:03;;;;;;;33.30;15.30;;;;;;;0.55;89.07;99793.65;218650;1269;140114;-67
2023/12/28 02:59:07;;;;;;;26.30;16.10;;;;;;;0.60;88.92;99784.16;218730;1271;140394;-67
2023/12/28 03:04:11;;;;;;;33.40;16.10;;;;;;;0.64;89.14;99780.95;217179;1271;139742;-67
2023/12/28 03:09:16;;;;;;;25.70;12.20;;;;;;;0.65;88.71;99782.19;216459;1271;141410;-68
2023/12/28 03:14:21;;;;;;;30.40;15.60;;;;;;;0.64;88.83;99769.33;217032;1271;140446;-67
2023/12/28 03:19:25;;;;;;;26.50;13.10;;;;;;;0.64;88.80;99766.25;216553;1267;141812;-68
2023/12/28 03:24:28;;;;;;;35.70;15.60;;;;;;;0.64;88.82;99761.36;215811;1270;140431;-67
2023/12/28 03:29:33;;;;;;;28.00;15.90;;;;;;;0.64;88.63;99763.27;215945;1271;141871;-67
2023/12/28 03:34:37;;;;;;;36.80;16.90;;;;;;;0.63;89.03;99751.34;216348;1268;139784;-68
2023/12/28 03:39:41;;;;;;;31.00;15.30;;;;;;;0.62;89.11;99743.54;216232;1267;139673;-67
2023/12/28 03:44:46;;;;;;;32.30;16.20;;;;;;;0.62;89.08;99741.48;215945;1270;139969;-66
2023/12/28 03:49:50;;;;;;;29.40;13.60;;;;;;;0.60;89.23;99737.84;216420;1267;142170;-66
2023/12/28 03:54:54;;;;;;;32.50;17.90;;;;;;;0.60;89.24;99724.59;215686;1267;139829;-68
2023/12/28 03:59:59;;;;;;;32.90;13.70;;;;;;;0.59;89.45;99717.31;216301;1267;141264;-69
2023/12/28 04:05:05;;;;;;;25.90;13.70;;;;;;;0.57;89.13;99710.50;217434;1267;139710;-68
2023/12/28 04:10:10;;;;;;;32.40;15.10;;;;;;;0.57;89.31;99699.02;215641;1270;141044;-68
2023/12/28 04:15:15;;;;;;;25.10;11.00;;;;;;;0.57;88.98;99682.60;216679;1267;141450;-67
2023/12/28 04:20:20;;;;;;;26.30;15.10;;;;;;;0.58;89.71;99666.36;216251;1270;141216;-67
2023/12/28 04:25:26;;;;;;;44.00;15.10;;;;;;;0.60;89.64;99665.91;215762;1270;139875;-68
2023/12/28 04:30:32;;;;;;;21.70;11.80;;;;;;;0.60;89.75;99651.96;215964;1270;140406;-68
2023/12/28 04:35:37;;;;;;;33.30;15.40;;;;;;;0.61;89.91;99633.39;216289;1267;139915;-67
2023/12/28 04:40:42;;;;;;;23.70;13.80;;;;;;;0.62;89.88;99644.58;218021;1267;140369;-68
2023/12/28 04:45:46;;;;;;;28.70;13.70;;;;;;;0.63;90.18;99636.08;218708;1267;140423;-68
2023/12/28 04:50:52;;;;;;;24.30;13.30;;;;;;;0.65;90.29;99629.52;218864;1267;140119;-68
2023/12/28 04:55:57;;;;;;;31.20;14.70;;;;;;;0.69;89.88;99623.30;216390;1267;140509;-67
2023/12/28 05:01:02;;;;;;;24.40;13.50;;;;;;;0.72;89.95;99616.69;216651;1267;140399;-68
2023/12/28 05:06:09;;;;;;;28.20;15.00;;;;;;;0.75;90.01;99611.14;218015;1267;139745;-69
2023/12/28 05:11:13;;;;;;;28.50;13.40;;;;;;;0.80;90.72;99598.46;216301;1267;140085;-68
2023/12/28 05:16:18;;;;;;;28.30;14.20;;;;;;;0.85;90.50;99579.91;215779;1267;140329;-69
2023/12/28 05:21:22;;;;;;;22.40;12.00;;;;;;;0.87;90.51;99563.03;216494;1270;141861;-69
2023/12/28 05:26:27;;;;;;;22.70;13.60;;;;;;;0.88;90.92;99564.23;216451;1268;140342;-67
2023/12/28 05:31:31;;;;;;;21.10;10.90;;;;;;;0.91;90.64;99569.19;215999;1267;140888;-68
2023/12/28 05:36:36;;;;;;;26.00;11.90;;;;;;;0.91;90.66;99564.08;215798;1270;139729;-68
2023/12/28 05:41:41;;;;;;;29.30;13.20;;;;;;;0.91;90.91;99568.10;215757;1270;140842;-67
2023/12/28 05:46:45;;;;;;;21.40;13.30;;;;;;;0.92;91.35;99569.03;216175;1267;139651;-65
2023/12/28 05:51:50;;;;;;;25.90;13.60;;;;;;;0.93;91.05;99573.16;215829;1267;139795;-66
2023/12/28 05:56:55;;;;;;;24.20;11.20;;;;;;;0.92;90.92;99577.77;217001;1267;139825;-66
2023/12/28 06:02:00;;;;;;;19.00;12.20;;;;;;;0.95;91.21;99570.05;215596;1270;140448;-66
2023/12/28 06:07:05;;;;;;;20.80;12.60;;;;;;;1.04;91.86;99574.36;215422;1269;140801;-65
2023/12/28 06:12:09;;;;;;;20.80;13.00;;;;;;;1.09;91.58;99572.59;216385;1269;140601;-66
2023/12/28 06:17:15;;;;;;;19.60;9.80;;;;;;;1.14;91.67;99574.17;215639;1268;139755;-65
2023/12/28 06:22:20;;;;;;;18.20;11.50;;;;;;;1.19;91.56;99572.91;215694;1267;139672;-65
2023/12/28 06:27:24;;;;;;;16.80;9.90;;;;;;;1.24;91.60;99572.89;216615;1267;139718;-67
2023/12/28 06:32:29;;;;;;;21.70;10.80;;;;;;;1.29;91.59;99580.86;216253;1268;139411;-65
2023/12/28 06:37:34;;;;;;;14.90;9.20;;;;;;;1.35;91.90;99588.91;217218;1267;139794;-65
2023/12/28 06:42:41;;;;;;;9.80;6.60;;;;;;;1.41;91.63;99584.48;218499;1267;141547;-68
2023/12/28 06:47:44;;;;;;;14.50;8.80;;;;;;;1.48;91.46;99587.02;218469;1269;141425;-66
2023/12/28 06:52:50;;;;;;;16.50;10.80;;;;;;;1.56;91.43;99601.17;218371;1268;140068;-68
2023/12/28 06:57:53;;;;;;;16.20;7.90;;;;;;;1.63;91.45;99606.21;216707;1270;139781;-66
2023/12/28 07:02:59;;;;;;;14.50;10.60;;;;;;;1.70;91.42;99582.17;217590;1266;139629;-67
2023/12/28 07:08:04;;;;;;;13.50;8.80;;;;;;;1.77;91.53;99569.30;216440;1267;140632;-66
2023/12/28 07:13:08;;;;;;;12.30;6.90;;;;;;;1.87;91.41;99572.42;217537;1267;140633;-67
2023/12/28 07:18:13;;;;;;;10.90;7.50;;;;;;;1.99;91.57;99582.98;216983;1267;140006;-65
2023/12/28 07:23:17;;;;;;;14.10;7.70;;;;;;;2.16;91.71;99586.41;216489;1267;139766;-65
2023/12/28 07:28:22;;;;;;;10.00;7.80;;;;;;;2.29;91.14;99606.73;215782;1267;140383;-65
2023/12/28 07:33:26;;;;;;;9.40;6.10;;;;;;;2.42;91.16;99612.45;217743;1267;142647;-65
2023/12/28 07:38:30;;;;;;;9.70;6.10;;;;;;;2.54;90.94;99628.50;216525;1267;139604;-66
2023/12/28 07:43:36;;;;;;;11.00;7.70;;;;;;;2.69;91.11;99618.46;216037;1270;139438;-67
2023/12/28 07:48:41;;;;;;;8.40;6.00;;;;;;;2.90;91.40;99601.54;216369;1267;140035;-66
2023/12/28 07:53:46;;;;;;;6.80;6.00;;;;;;;3.14;91.37;99611.52;215646;1270;139830;-66
2023/12/28 07:58:51;;;;;;;9.70;5.90;;;;;;;3.35;91.10;99608.05;216100;1268;140177;-69
2023/12/28 08:03:56;;;;;;;9.20;7.20;;;;;;;3.57;90.97;99617.98;215891;1270;141547;-70
2023/12/28 08:09:00;;;;;;;8.30;4.90;;;;;;;3.76;90.66;99624.25;216167;1270;139287;-65
2023/12/28 08:14:05;;;;;;;9.40;5.70;;;;;;;3.89;90.46;99625.65;215933;1268;140224;-70
2023/12/28 08:19:11;;;;;;;8.40;5.20;;;;;;;4.06;90.20;99624.19;217507;1267;140399;-73
2023/12/28 08:24:16;;;;;;;7.40;4.90;;;;;;;4.27;89.89;99627.90;216605;1267;140513;-70
2023/12/28 08:29:20;;;;;;;8.50;5.60;;;;;;;4.42;89.28;99638.02;216202;1268;139488;-69
2023/12/28 08:34:25;;;;;;;5.00;4.10;;;;;;;4.55;89.37;99632.70;218899;1267;139701;-74
2023/12/28 08:39:29;;;;;;;8.20;5.20;;;;;;;4.65;88.60;99639.11;217249;1267;141513;-69
2023/12/28 08:44:36;;;;;;;7.50;4.50;;;;;;;4.73;88.39;99653.20;218781;1267;140018;-69
2023/12/28 08:49:41;;;;;;;5.30;4.60;;;;;;;4.81;88.23;99659.01;216185;1267;140197;-70
2023/12/28 08:54:46;;;;;;;9.70;4.60;;;;;;;4.87;88.13;99673.29;216547;1270;140024;-69
2023/12/28 08:59:49;;;;;;;6.80;4.90;;;;;;;4.92;88.19;99677.50;217247;1267;139604;-69
2023/12/28 09:04:54;;;;;;;6.60;4.70;;;;;;;4.95;88.27;99675.48;216560;1267;140041;-70
2023/12/28 09:09:59;;;;;;;8.80;4.20;;;;;;;5.00;88.03;99662.16;216210;1268;141469;-72
2023/12/28 09:15:06;;;;;;;8.40;5.10;;;;;;;5.06;88.06;99666.81;216941;1267;139887;-69
2023/12/28 09:20:11;;;;;;;5.20;4.40;;;;;;;5.13;88.05;99665.13;216073;1270;141040;-69
2023/12/28 09:25:16;;;;;;;9.00;5.30;;;;;;;5.23;88.35;99648.05;215704;1267;139790;-67
2023/12/28 09:30:20;;;;;;;4.20;3.60;;;;;;;5.31;88.41;99652.69;215825;1269;140242;-66
2023/12/28 09:35:25;;;;;;;8.90;5.50;;;;;;;5.35;87.70;99660.06;216134;1269;139911;-67
2023/12/28 09:40:29;;;;;;;4.40;3.80;;;;;;;5.39;87.43;99667.10;216827;1267;139417;-66
2023/12/28 09:45:35;;;;;;;9.40;4.40;;;;;;;5.41;87.41;99665.73;216149;1267;140265;-70
2023/12/28 09:50:40;;;;;;;8.00;4.10;;;;;;;5.49;87.31;99661.86;215988;1267;139423;-69
2023/12/28 09:55:45;;;;;;;6.50;5.80;;;;;;;5.54;87.37;99653.26;217527;1268;140527;-71
2023/12/28 10:00:50;;;;;;;6.60;4.70;;;;;;;5.59;86.96;99652.24;216101;1267;139424;-69
2023/12/28 10:05:55;;;;;;;7.50;5.40;;;;;;;5.66;87.05;99652.01;216336;1267;141247;-70
2023/12/28 10:11:00;;;;;;;10.60;4.80;;;;;;;5.72;86.57;99657.70;215828;1267;139449;-69
2023/12/28 10:16:05;;;;;;;100.70;49.90;;;;;;;5.74;86.52;99645.83;216225;1267;139747;-68
2023/12/28 10:21:11;;;;;;;12.10;6.30;;;;;;;5.80;86.33;99655.81;217326;1267;140719;-69
2023/12/28 10:26:18;;;;;;;10.40;4.50;;;;;;;5.86;86.28;99632.88;217832;1267;140520;-68
2023/12/28 10:31:21;;;;;;;7.30;4.90;;;;;;;5.95;86.03;99636.04;217198;1268;139752;-70
2023/12/28 10:36:27;;;;;;;8.30;4.50;;;;;;;6.02;86.47;99629.39;216637;1267;139984;-68
2023/12/28 10:41:35;;;;;;;6.70;4.50;;;;;;;6.08;85.88;99638.05;216746;1268;139556;-69
2023/12/28 10:46:43;;;;;;;7.30;3.30;;;;;;;6.14;85.34;99648.60;217679;1267;139571;-72
2023/12/28 10:51:52;;;;;;;7.00;4.40;;;;;;;6.16;85.32;99644.36;217027;1268;140394;-69
2023/12/28 10:57:10;;;;;;;5.60;4.20;;;;;;;6.18;85.46;99639.98;216203;1268;141912;-67
2023/12/28 11:02:21;;;;;;;;;;;;;;;6.24;85.37;99637.14;216389;1268;140168;-68
2023/12/28 11:07:32;;;;;;;6.30;4.60;;;;;;;6.27;85.24;99629.95;217033;1267;127193;-66
2023/12/28 11:12:37;;;;;;;10.60;5.30;;;;;;;6.34;85.54;99644.32;216081;1268;140051;-67
2023/12/28 11:17:43;;;;;;;8.80;3.90;;;;;;;6.39;85.48;99640.19;216961;1268;140084;-66
2023/12/28 11:22:50;;;;;;;6.70;5.90;;;;;;;6.46;85.47;99633.05;216457;1270;140823;-71
2023/12/28 11:27:54;;;;;;;12.00;5.10;;;;;;;6.55;85.57;99635.75;217174;1268;139908;-69
2023/12/28 11:32:59;;;;;;;5.70;5.20;;;;;;;6.61;85.15;99634.47;215860;1270;142017;-70
2023/12/28 11:38:09;;;;;;;6.10;4.00;;;;;;;6.66;85.04;99632.36;215679;1267;139431;-68
2023/12/28 11:43:19;;;;;;;7.70;4.10;;;;;;;6.71;84.64;99626.39;216188;1267;139644;-68
2023/12/28 11:48:28;;;;;;;6.70;4.30;;;;;;;6.77;84.63;99621.69;216228;1267;139643;-66
2023/12/28 11:53:32;;;;;;;7.10;4.50;;;;;;;6.84;84.33;99612.44;216524;1267;139970;-67
2023/12/28 11:58:36;;;;;;;5.10;4.50;;;;;;;6.91;84.67;99613.66;216833;1267;139606;-69
2023/12/28 12:03:40;;;;;;;8.40;5.10;;;;;;;7.02;84.79;99619.59;216022;1268;139439;-69
2023/12/28 12:08:46;;;;;;;8.60;5.30;;;;;;;7.09;84.37;99612.72;215800;1267;140341;-70
2023/12/28 12:13:51;;;;;;;11.90;5.60;;;;;;;7.15;84.07;99608.02;215691;1267;139250;-69
2023/12/28 12:18:56;;;;;;;4.80;4.40;;;;;;;7.19;83.49;99608.90;216577;1267;140592;-73
2023/12/28 12:24:01;;;;;;;9.00;5.50;;;;;;;7.20;83.17;99608.20;216337;1268;1515354;-70
2023/12/28 12:29:06;;;;;;;7.40;5.20;;;;;;;7.21;82.73;99602.61;216270;1271;139686;-70
2023/12/28 12:34:12;;;;;;;7.10;4.80;;;;;;;7.24;83.09;99602.05;217827;1268;139991;-68
2023/12/28 12:39:17;;;;;;;7.10;4.60;;;;;;;7.27;82.64;99607.02;216991;1268;139893;-68
2023/12/28 12:44:22;;;;;;;5.70;4.60;;;;;;;7.33;82.26;99595.63;216407;1270;139753;-68
2023/12/28 12:49:27;;;;;;;10.90;5.00;;;;;;;7.35;82.20;99596.89;215799;1269;139306;-68
2023/12/28 12:54:32;;;;;;;8.20;4.60;;;;;;;7.36;81.98;99597.73;216188;1268;139898;-67
2023/12/28 12:59:37;;;;;;;7.10;3.90;;;;;;;7.38;81.86;99591.52;216088;1267;139994;-68
2023/12/28 13:04:42;;;;;;;11.20;4.80;;;;;;;7.39;81.91;99588.61;215940;1267;139384;-66
2023/12/28 13:09:47;;;;;;;9.60;4.90;;;;;;;7.41;81.37;99583.05;217251;1267;140131;-68
2023/12/28 13:14:51;;;;;;;6.70;4.30;;;;;;;7.43;81.57;99587.40;216276;1267;139367;-68
2023/12/28 13:19:57;;;;;;;14.00;5.60;;;;;;;7.44;81.48;99598.41;216031;1268;140034;-67
2023/12/28 13:25:01;;;;;;;7.70;5.70;;;;;;;7.41;81.18;99597.37;216478;1267;140328;-68
2023/12/28 13:30:15;;;;;;;10.10;5.40;;;;;;;7.39;81.39;99598.94;216583;1267;139398;-71
2023/12/28 13:35:19;;;;;;;9.50;6.40;;;;;;;7.37;80.63;99611.96;215993;1270;139876;-68
2023/12/28 13:40:24;;;;;;;7.60;4.90;;;;;;;7.32;80.67;99618.34;215998;1270;139521;-70
2023/12/28 13:45:28;;;;;;;10.80;5.30;;;;;;;7.29;81.07;99620.05;216041;1270;139349;-70
2023/12/28 13:50:33;;;;;;;9.40;5.20;;;;;;;7.25;80.77;99616.48;217829;1267;140344;-69
2023/12/28 13:55:37;;;;;;;8.60;5.80;;;;;;;7.22;80.62;99619.20;217227;1268;139447;-69
2023/12/28 14:00:45;;;;;;;9.20;5.40;;;;;;;7.16;80.70;99621.65;216866;1267;140482;-71
2023/12/28 14:05:49;;;;;;;10.10;5.50;;;;;;;7.11;80.46;99627.26;215678;1271;139882;-71
2023/12/28 14:10:53;;;;;;;11.70;5.90;;;;;;;7.08;80.56;99627.36;216077;1271;139604;-70
2023/12/28 14:15:58;;;;;;;10.20;5.50;;;;;;;7.04;80.63;99624.86;215877;1267;140428;-71
2023/12/28 14:21:03;;;;;;;12.50;5.70;;;;;;;6.98;80.25;99626.92;215756;1268;140577;-71
2023/12/28 14:26:15;;;;;;;10.00;5.90;;;;;;;6.87;80.51;99625.75;215885;1267;139839;-70
2023/12/28 14:31:22;;;;;;;8.10;5.30;;;;;;;6.79;80.35;99632.39;216194;1271;139217;-74
2023/12/28 14:36:33;;;;;;;9.90;5.00;;;;;;;6.67;80.19;99636.59;216837;1268;139929;-74
2023/12/28 14:41:38;;;;;;;13.60;5.70;;;;;;;6.52;79.99;99640.04;215782;1268;139938;-70
2023/12/28 14:53:18;;;;;;;;;;;;;;;6.25;80.35;99634.48;215577;1268;140020;-70
2023/12/28 14:58:26;;;;;;;10.70;6.90;;;;;;;6.13;80.04;99633.45;215970;1268;234268;-68
2023/12/28 15:03:32;;;;;;;9.90;6.50;;;;;;;6.04;80.37;99633.34;216230;1267;141280;-69
2023/12/28 15:08:39;;;;;;;11.30;6.30;;;;;;;5.93;80.42;99631.23;215727;1268;139228;-69
2023/12/28 15:13:44;;;;;;;8.60;6.20;;;;;;;5.83;80.40;99619.63;215638;1268;139714;-68
2023/12/28 15:18:50;;;;;;;10.30;6.10;;;;;;;5.71;80.13;99614.41;216075;1269;140365;-66
2023/12/28 15:23:57;;;;;;;9.90;5.80;;;;;;;5.62;80.24;99614.20;216181;1268;140195;-64
2023/12/28 15:29:03;;;;;;;12.50;6.30;;;;;;;5.56;80.76;99616.81;217173;1268;139993;-65
2023/12/28 15:34:08;;;;;;;8.50;6.30;;;;;;;5.51;81.27;99614.22;216970;1267;139581;-67
2023/12/28 15:39:13;;;;;;;14.90;7.60;;;;;;;5.45;80.93;99615.38;216293;1268;139223;-66
2023/12/28 15:44:20;;;;;;;13.80;8.20;;;;;;;5.36;81.19;99604.67;216156;1268;140575;-66
2023/12/28 15:49:25;;;;;;;15.70;7.70;;;;;;;5.30;81.18;99597.55;215703;1268;140568;-67
2023/12/28 16:44:59;;;;;;;18.60;10.00;;;;;;;4.61;82.36;99616.65;216129;1268;140096;-70
2023/12/28 16:50:05;;;;;;;16.30;9.10;;;;;;;4.54;82.29;99618.55;216994;1267;140345;-69
2023/12/28 16:55:10;;;;;;;18.10;8.70;;;;;;;4.50;82.64;99615.61;217146;1268;140204;-76
2023/12/28 17:00:15;;;;;;;14.20;9.70;;;;;;;4.45;82.79;99618.43;216984;1268;140214;-68
2023/12/28 17:05:26;;;;;;;22.30;10.20;;;;;;;4.40;82.61;99625.19;218299;1267;140638;-68
2023/12/28 17:10:34;;;;;;;13.90;10.50;;;;;;;4.36;82.95;99631.75;215924;1270;139615;-69
2023/12/28 17:15:39;;;;;;;21.30;10.00;;;;;;;4.33;83.23;99638.80;215586;1268;140172;-68
2023/12/28 17:20:45;;;;;;;15.00;8.70;;;;;;;4.29;83.02;99638.17;216461;1268;140663;-68
2023/12/28 17:25:54;;;;;;;24.20;12.90;;;;;;;4.24;83.19;99637.52;217063;1268;139959;-67
2023/12/28 17:31:02;;;;;;;21.20;10.90;;;;;;;4.18;83.43;99639.19;216307;1269;140399;-66
2023/12/28 17:36:10;;;;;;;19.00;10.30;;;;;;;4.12;83.33;99632.21;217191;1269;140473;-67
2023/12/28 17:41:22;;;;;;;17.10;10.30;;;;;;;4.08;83.89;99632.36;218123;1271;140270;-67
2023/12/28 17:46:50;;;;;;;19.80;10.90;;;;;;;4.08;83.51;99635.64;216616;1270;141759;-67
2023/12/28 17:52:02;;;;;;;21.30;10.30;;;;;;;4.06;83.64;99641.63;216833;1269;140151;-67
2023/12/28 17:57:12;;;;;;;22.70;9.70;;;;;;;4.02;83.77;99642.17;218272;1269;140542;-68
2023/12/28 18:02:51;;;;;;;18.60;10.30;;;;;;;4.00;83.96;99645.86;216568;1268;139826;-68
2023/12/28 18:07:57;;;;;;;17.40;9.50;;;;;;;3.98;84.04;99649.38;218107;1269;140317;-67
2023/12/28 18:13:03;;;;;;;22.50;9.60;;;;;;;3.95;84.21;99650.45;218223;1267;139953;-68
2023/12/28 18:18:08;;;;;;;18.30;10.80;;;;;;;3.95;84.08;99653.56;217623;1266;139600;-66
2023/12/28 18:23:17;;;;;;;21.00;10.80;;;;;;;3.96;84.12;99651.09;216753;1268;140064;-68
2023/12/28 18:28:20;;;;;;;16.50;11.50;;;;;;;3.96;84.53;99656.77;218119;1267;140326;-68
2023/12/28 18:33:24;;;;;;;18.40;10.00;;;;;;;3.94;84.46;99651.20;217590;1267;139787;-65
2023/12/28 18:38:29;;;;;;;19.60;10.50;;;;;;;3.93;84.22;99645.60;217106;1271;141739;-67
2023/12/28 18:44:03;;;;;;;18.40;10.00;;;;;;;3.92;84.56;99645.91;216040;1271;139315;-67
2023/12/28 18:50:15;;;;;;;16.70;10.30;;;;;;;3.88;84.39;99643.98;216947;1267;225860;-65
2023/12/28 18:55:20;;;;;;;14.90;11.20;;;;;;;3.88;84.55;99637.80;215774;1267;140265;-64
2023/12/28 19:00:24;;;;;;;18.70;10.60;;;;;;;3.88;84.89;99643.13;216041;1268;139921;-64
2023/12/28 19:06:00;;;;;;;16.70;9.80;;;;;;;3.87;84.95;99641.33;216963;1271;140216;-67
2023/12/28 19:11:46;;;;;;;20.40;9.50;;;;;;;3.85;85.06;99644.56;217285;1271;234399;-68
2023/12/28 19:24:30;;;;;;;17.90;10.90;;;;;;;3.84;85.16;99633.44;215311;1272;140902;-68
2023/12/28 19:30:29;;;;;;;20.40;10.50;;;;;;;3.85;85.18;99628.83;217446;1270;222309;-68
2023/12/28 19:35:35;;;;;;;18.10;10.30;;;;;;;3.86;85.29;99626.48;216300;1270;141630;-68
2023/12/28 19:40:40;;;;;;;17.60;11.30;;;;;;;3.87;85.22;99630.74;216238;1267;140122;-65
2023/12/28 19:45:46;;;;;;;17.70;10.30;;;;;;;3.88;85.24;99641.91;216237;1267;140208;-65
2023/12/28 19:50:51;;;;;;;18.50;10.30;;;;;;;3.87;85.12;99637.64;216821;1267;139733;-66
2023/12/28 19:55:57;;;;;;;23.60;15.40;;;;;;;3.87;85.01;99635.85;216443;1267;141856;-66
2023/12/28 20:01:07;;;;;;;16.90;11.90;;;;;;;3.89;85.29;99633.80;215452;1270;140297;-67
2023/12/28 20:06:14;;;;;;;19.80;10.60;;;;;;;3.90;85.48;99635.59;215631;1270;140216;-66
2023/12/28 20:11:20;;;;;;;16.70;9.90;;;;;;;3.92;85.05;99631.02;217260;1272;139992;-66
2023/12/28 20:16:26;;;;;;;16.80;8.60;;;;;;;3.94;85.25;99628.64;216355;1267;139747;-66
2023/12/28 20:21:33;;;;;;;17.80;8.00;;;;;;;3.96;85.13;99628.90;218277;1269;140765;-67
2023/12/28 20:26:38;;;;;;;24.90;8.70;;;;;;;4.00;85.47;99631.01;218251;1268;140161;-68
2023/12/28 20:31:43;;;;;;;13.80;8.50;;;;;;;4.04;85.40;99621.09;216372;1268;140233;-67
2023/12/28 20:36:48;;;;;;;10.30;6.90;;;;;;;4.10;85.32;99617.30;216950;1269;140896;-66
2023/12/28 20:41:55;;;;;;;12.80;7.40;;;;;;;4.10;85.16;99614.06;216038;1270;140401;-66
2023/12/28 20:46:59;;;;;;;15.50;7.40;;;;;;;4.08;85.04;99611.50;217407;1268;140244;-64
2023/12/28 20:52:03;;;;;;;13.50;7.00;;;;;;;4.10;84.94;99608.14;218292;1270;140967;-65
2023/12/28 20:57:08;;;;;;;13.90;7.20;;;;;;;4.10;85.14;99609.96;217516;1269;139431;-66
2023/12/28 21:02:13;;;;;;;12.40;7.50;;;;;;;4.12;84.96;99609.61;217552;1270;139887;-67
2023/12/28 21:07:21;;;;;;;14.40;7.70;;;;;;;4.11;85.05;99613.70;215835;1272;140096;-67
2023/12/28 21:12:36;;;;;;;11.20;6.50;;;;;;;4.10;85.12;99608.26;216236;1270;139791;-67
2023/12/28 21:17:43;;;;;;;13.50;8.00;;;;;;;4.07;84.88;99603.41;215912;1273;139657;-65
2023/12/28 21:22:47;;;;;;;12.10;7.40;;;;;;;4.05;84.97;99605.84;216749;1268;140203;-65
2023/12/28 21:27:51;;;;;;;13.60;7.40;;;;;;;4.03;84.96;99601.77;216619;1268;140323;-66
2023/12/28 21:32:55;;;;;;;14.80;7.90;;;;;;;4.03;85.24;99604.04;216322;1270;140104;-66
2023/12/28 21:38:02;;;;;;;15.10;7.50;;;;;;;4.01;85.00;99605.89;215857;1272;140226;-66
2023/12/28 21:43:09;;;;;;;9.40;7.10;;;;;;;3.99;84.91;99609.70;216697;1268;239112;-66
2023/12/28 21:48:14;;;;;;;16.10;8.20;;;;;;;3.96;84.95;99608.89;215898;1272;139326;-65
2023/12/28 21:53:19;;;;;;;15.10;8.20;;;;;;;3.91;84.79;99613.53;216475;1270;140788;-66
2023/12/28 21:58:24;;;;;;;13.40;10.00;;;;;;;3.87;84.84;99614.68;216023;1270;139742;-65
2023/12/28 22:03:30;;;;;;;11.60;8.50;;;;;;;3.85;84.77;99609.48;216680;1272;139777;-63
2023/12/28 22:08:34;;;;;;;16.90;10.40;;;;;;;3.82;84.90;99601.50;216966;1268;140841;-64
2023/12/28 22:13:38;;;;;;;14.90;10.30;;;;;;;3.80;84.81;99601.04;218243;1268;140245;-65
2023/12/28 22:18:44;;;;;;;20.50;9.80;;;;;;;3.79;85.11;99600.59;218286;1267;140224;-65
2023/12/28 22:23:49;;;;;;;16.50;9.70;;;;;;;3.80;85.10;99604.24;218242;1268;140312;-68
2023/12/28 22:28:52;;;;;;;16.60;9.00;;;;;;;3.80;84.95;99600.91;218278;1268;140305;-69
2023/12/28 22:33:57;;;;;;;16.10;10.20;;;;;;;3.80;84.69;99597.43;218365;1268;139833;-67
2023/12/28 22:39:01;;;;;;;14.40;8.90;;;;;;;3.79;85.01;99594.80;216479;1267;140366;-68
2023/12/28 22:44:04;;;;;;;45.90;22.60;;;;;;;3.79;85.00;99584.16;216708;1267;139984;-67
2023/12/28 22:49:32;;;;;;;80.40;34.80;;;;;;;3.78;85.00;99586.02;215676;1268;140826;-67
2023/12/28 22:54:37;;;;;;;32.20;16.80;;;;;;;3.76;85.12;99587.10;216987;1269;140317;-68
2023/12/28 22:59:44;;;;;;;14.50;7.60;;;;;;;3.75;85.19;99583.70;216532;1269;140109;-66
2023/12/28 23:04:48;;;;;;;15.10;9.30;;;;;;;3.74;85.10;99586.32;215950;1268;139678;-67
2023/12/28 23:09:58;;;;;;;14.80;10.50;;;;;;;3.72;85.11;99585.86;215986;1270;139654;-66
2023/12/28 23:15:03;;;;;;;17.10;11.00;;;;;;;3.68;85.16;99585.23;216240;1268;139997;-68
2023/12/28 23:20:07;;;;;;;19.90;12.10;;;;;;;3.65;85.09;99576.39;215631;1268;140667;-67
2023/12/28 23:25:17;;;;;;;15.60;9.50;;;;;;;3.61;85.39;99578.11;216479;1268;140350;-68
2023/12/28 23:30:21;;;;;;;13.60;8.80;;;;;;;3.59;85.41;99580.36;216389;1268;140521;-68
2023/12/28 23:35:26;;;;;;;17.80;9.30;;;;;;;3.57;85.41;99575.65;217241;1268;140816;-67
2023/12/28 23:40:30;;;;;;;20.00;10.10;;;;;;;3.54;85.50;99572.83;216272;1270;140201;-69
2023/12/28 23:45:34;;;;;;;16.70;10.00;;;;;;;3.53;85.66;99571.96;216000;1268;140070;-67
2023/12/28 23:50:39;;;;;;;19.60;11.20;;;;;;;3.50;85.77;99573.56;215814;1272;140872;-68
2023/12/28 23:55:45;;;;;;;15.10;9.10;;;;;;;3.46;85.85;99566.36;216561;1268;139928;-68
